FCBB/BZV METAR and TAF weather

Enter ICAO airport designator
Station Type Date Time Source
FCBB METAR 2018/07/21 11:00 UTC NOAA

FCBB 211100Z 25006KT 7000 BKN020 24/19 Q1015 NOSIG


Station Type Date Time Source
FCBB Decoded METAR 2018/07/21 11:00 UTC NOAA

Brazzaville / Maya-Maya, Congo, Republic of the (FCBB) 04-15S 015-15E 316M
Jul 21, 2018 - 07:00 AM EDT / 2018.07.21 1100 UTC
Wind: from the WSW (250 degrees) at 7 MPH (6 KT):0
Visibility: 4 mile(s):0
Sky conditions: mostly cloudy
Temperature: 75 F (24 C)
Dew Point: 66 F (19 C)
Relative Humidity: 73%
Pressure (altimeter): 29.97 in. Hg (1015 hPa)
ob: FCBB 211100Z 25006KT 7000 BKN020 24/19 Q1015 NOSIG
cycle: 11

Station Type Date Time Source
FCBB TAF 2018/07/21 12:35 UTC NOAA

TAF FCBB 211100Z 2112/2218 26006KT 7000 BKN020 PROB30 2204/2208 3000 BR


Example: see airport list